Time;durP1;ratioP1;P1;durP2;ratioP2;P2;SDS_P1;SDS_P2;PMS_P1;PMS_P2;Temp;Humidity;BMP_temperature;BMP_pressure;BME280_temperature;BME280_humidity;BME280_pressure;Samples;Min_cycle;Max_cycle;Signal;HPM_P1;HPM_P2
2024/01/28 00:02:25;;;;;;;4.73;2.57;;;;;;;19.19;47.67;99278.75;5039744;28;20622;-24
2024/01/28 00:04:51;;;;;;;3.00;2.70;;;;;;;19.17;48.14;99278.66;5036068;28;20200;-25
2024/01/28 00:07:18;;;;;;;2.80;2.60;;;;;;;19.19;48.01;99273.66;5045124;28;20217;-24
2024/01/28 00:09:44;;;;;;;2.70;2.50;;;;;;;19.17;47.96;99265.91;5044696;28;20205;-24
2024/01/28 00:12:11;;;;;;;2.60;2.40;;;;;;;19.17;47.91;99271.00;5043906;28;20201;-25
2024/01/28 00:14:38;;;;;;;2.83;2.50;;;;;;;19.17;47.79;99277.75;5039785;28;20692;-25
2024/01/28 00:17:05;;;;;;;3.23;2.60;;;;;;;19.18;48.02;99276.97;5051212;28;20221;-24
2024/01/28 00:19:36;;;;;;;2.77;2.40;;;;;;;19.18;47.69;99276.97;5041280;28;20197;-24
2024/01/28 00:22:03;;;;;;;3.10;2.80;;;;;;;19.18;47.95;99264.22;5043918;28;20215;-24
2024/01/28 00:24:30;;;;;;;2.80;2.60;;;;;;;19.17;47.82;99263.38;5039607;28;20198;-25
2024/01/28 00:26:56;;;;;;;2.60;2.40;;;;;;;19.15;47.74;99257.28;5044295;28;20227;-25
2024/01/28 00:29:29;;;;;;;2.00;1.90;;;;;;;19.17;47.95;99258.28;5041147;28;20645;-24
2024/01/28 00:31:56;;;;;;;2.60;2.40;;;;;;;19.17;47.90;99260.81;5048084;28;20651;-24
2024/01/28 00:34:24;;;;;;;2.77;2.50;;;;;;;19.18;47.83;99259.13;5044159;28;20197;-25
2024/01/28 00:36:51;;;;;;;2.63;2.37;;;;;;;19.17;47.81;99258.28;5042671;28;20316;-24
2024/01/28 00:39:17;;;;;;;2.93;2.30;;;;;;;19.18;47.82;99262.56;5052489;28;20197;-24
2024/01/28 00:41:44;;;;;;;2.83;2.20;;;;;;;19.19;48.16;99256.69;5045183;28;20319;-25
2024/01/28 00:44:10;;;;;;;2.67;2.47;;;;;;;19.20;47.91;99255.03;5046020;28;20263;-25
2024/01/28 00:46:37;;;;;;;2.50;2.30;;;;;;;19.20;47.76;99257.56;5052031;28;20300;-24
2024/01/28 00:49:03;;;;;;;2.60;2.40;;;;;;;19.19;47.70;99250.72;5041714;28;20558;-24
2024/01/28 00:51:31;;;;;;;2.67;2.47;;;;;;;19.19;47.86;99243.06;5044457;28;20651;-25
2024/01/28 00:53:58;;;;;;;2.60;2.40;;;;;;;19.18;47.71;99242.19;5042164;28;20205;-24
2024/01/28 00:56:25;;;;;;;2.80;2.60;;;;;;;19.18;47.84;99239.63;5041070;28;20271;-24
2024/01/28 00:58:51;;;;;;;3.80;2.20;;;;;;;19.17;47.76;99230.22;5037068;28;20202;-25
2024/01/28 01:01:19;;;;;;;2.70;2.50;;;;;;;19.18;47.99;99232.00;5043735;28;20209;-25
2024/01/28 01:03:47;;;;;;;2.63;2.43;;;;;;;19.17;47.91;99222.59;5034394;28;20224;-31
2024/01/28 01:06:14;;;;;;;2.60;2.40;;;;;;;19.17;48.11;99225.13;5041369;28;20764;-25
2024/01/28 01:08:41;;;;;;;2.67;2.40;;;;;;;19.17;48.16;99222.59;5040460;28;20193;-24
2024/01/28 01:11:07;;;;;;;2.73;2.40;;;;;;;19.16;47.54;99217.41;5042914;28;20205;-24
2024/01/28 01:13:34;;;;;;;2.90;2.60;;;;;;;19.18;47.35;99213.25;5043371;28;20196;-25
2024/01/28 01:16:01;;;;;;;3.20;2.77;;;;;;;19.17;47.64;99217.50;5048215;28;20308;-24
2024/01/28 01:18:27;;;;;;;3.20;2.40;;;;;;;19.18;47.90;99218.34;5046518;28;20225;-24
2024/01/28 01:20:54;;;;;;;2.50;2.30;;;;;;;19.16;47.76;99208.06;5037143;28;20634;-25
2024/01/28 01:23:21;;;;;;;3.10;2.80;;;;;;;19.17;47.67;99209.84;5048997;28;20204;-25
2024/01/28 01:25:48;;;;;;;2.87;2.53;;;;;;;19.17;47.87;99207.28;5050456;28;20197;-24
2024/01/28 01:28:14;;;;;;;2.37;2.17;;;;;;;19.19;48.03;99217.59;5042597;28;20678;-24
2024/01/28 01:30:41;;;;;;;2.70;2.50;;;;;;;19.19;47.43;99208.25;5039172;28;20200;-25
2024/01/28 01:33:08;;;;;;;2.40;2.20;;;;;;;19.21;47.18;99213.44;5047267;28;20659;-24
2024/01/28 01:35:35;;;;;;;3.33;3.00;;;;;;;19.19;47.80;99207.41;5037628;28;20712;-24
2024/01/28 01:38:01;;;;;;;3.17;2.87;;;;;;;19.19;47.80;99208.25;5048339;28;20644;-25
2024/01/28 01:40:28;;;;;;;2.83;2.50;;;;;;;19.19;47.25;99209.94;5046403;28;20204;-25
2024/01/28 01:42:55;;;;;;;2.90;2.60;;;;;;;19.18;47.64;99205.59;5046897;28;20675;-26
2024/01/28 01:45:21;;;;;;;2.90;2.70;;;;;;;19.18;47.81;99208.16;5045952;28;20731;-24
2024/01/28 01:47:48;;;;;;;2.50;2.30;;;;;;;19.17;47.82;99194.56;5042902;28;20216;-25
2024/01/28 01:50:14;;;;;;;2.50;2.30;;;;;;;19.13;47.79;99187.47;5042113;28;20607;-24
2024/01/28 01:52:43;;;;;;;2.67;2.47;;;;;;;19.16;47.89;99185.13;5035015;28;20547;-24
2024/01/28 01:55:09;;;;;;;3.07;2.77;;;;;;;19.15;47.35;99180.81;5033186;28;20221;-24
2024/01/28 01:57:37;;;;;;;2.70;2.50;;;;;;;19.15;48.02;99180.81;5042835;28;20304;-26
2024/01/28 02:00:04;;;;;;;2.50;2.30;;;;;;;19.17;47.69;99186.91;5039994;28;20207;-24
2024/01/28 02:02:31;;;;;;;2.70;2.50;;;;;;;19.16;47.82;99190.22;5038997;28;20284;-24
2024/01/28 02:04:58;;;;;;;3.10;2.67;;;;;;;19.17;48.14;99197.09;5035819;28;20212;-25
2024/01/28 02:07:25;;;;;;;3.23;2.70;;;;;;;19.16;47.84;99199.56;5050126;28;20221;-24
2024/01/28 02:09:51;;;;;;;2.30;2.10;;;;;;;19.16;47.89;99199.56;5040385;28;20202;-24
2024/01/28 02:12:18;;;;;;;2.60;2.40;;;;;;;19.16;47.78;99202.97;5038406;28;20205;-25
2024/01/28 02:14:46;;;;;;;2.43;2.23;;;;;;;19.18;47.63;99193.75;5044757;28;20196;-25
2024/01/28 02:17:12;;;;;;;2.40;2.20;;;;;;;19.18;47.57;99193.75;5046139;28;20227;-24
2024/01/28 02:19:39;;;;;;;3.23;2.97;;;;;;;19.19;47.63;99195.50;5044549;28;20201;-24
2024/01/28 02:22:06;;;;;;;3.33;2.80;;;;;;;19.18;48.04;99201.41;5044236;28;20252;-23
2024/01/28 02:24:32;;;;;;;2.93;2.70;;;;;;;19.18;48.13;99206.50;5050111;28;20197;-25
2024/01/28 02:26:59;;;;;;;2.80;2.50;;;;;;;19.18;47.88;99200.50;5052357;28;20216;-25
2024/01/28 02:29:25;;;;;;;3.87;2.90;;;;;;;19.15;47.82;99198.66;5048149;28;20193;-25
2024/01/28 02:31:52;;;;;;;3.47;2.97;;;;;;;19.15;47.92;99201.22;5055081;28;20725;-28
2024/01/28 02:34:19;;;;;;;3.77;2.77;;;;;;;19.16;47.84;99192.75;5049996;28;20206;-25
2024/01/28 02:36:46;;;;;;;2.77;2.57;;;;;;;19.16;47.98;99194.44;5042235;28;20221;-25
2024/01/28 02:39:12;;;;;;;3.07;2.67;;;;;;;19.15;47.84;99191.00;5042623;28;20288;-28
2024/01/28 02:41:39;;;;;;;3.53;3.00;;;;;;;19.16;47.67;99192.75;5045342;28;20193;-25
2024/01/28 02:44:05;;;;;;;3.00;2.70;;;;;;;19.17;47.85;99186.00;5050810;28;20205;-25
2024/01/28 02:46:32;;;;;;;3.80;2.70;;;;;;;19.15;48.16;99182.47;5048075;28;20717;-25
2024/01/28 02:48:59;;;;;;;3.20;2.90;;;;;;;18.88;47.73;99129.72;5041912;28;20231;-25
2024/01/28 02:51:25;;;;;;;3.20;2.60;;;;;;;19.16;48.37;99176.63;5044440;28;20305;-25
2024/01/28 02:53:52;;;;;;;3.10;2.80;;;;;;;19.16;48.00;99176.63;5052276;28;20193;-25
2024/01/28 02:56:19;;;;;;;2.80;2.60;;;;;;;19.15;48.02;99175.72;5042738;28;20263;-25
2024/01/28 02:58:45;;;;;;;3.10;2.80;;;;;;;19.17;47.73;99176.72;5040887;28;20250;-27
2024/01/28 03:01:12;;;;;;;2.90;2.70;;;;;;;19.19;47.38;99174.25;5049465;28;20557;-25
2024/01/28 03:03:39;;;;;;;3.27;2.90;;;;;;;19.20;47.86;99176.00;5050585;28;20232;-25
2024/01/28 03:06:06;;;;;;;3.10;2.80;;;;;;;19.18;47.71;99169.94;5039550;28;20225;-25
2024/01/28 03:08:33;;;;;;;3.00;2.70;;;;;;;19.16;47.94;99171.50;5052894;28;20222;-25
2024/01/28 03:11:00;;;;;;;3.40;3.10;;;;;;;19.17;47.93;99166.50;5045464;28;20201;-25
2024/01/28 03:13:26;;;;;;;3.10;2.80;;;;;;;19.16;47.85;99166.41;5042318;28;20202;-25
2024/01/28 03:15:54;;;;;;;2.50;2.30;;;;;;;19.15;48.00;99170.63;5046612;28;20286;-25
2024/01/28 03:18:21;;;;;;;2.90;2.70;;;;;;;19.14;47.98;99161.22;5043703;28;20276;-25
2024/01/28 03:20:48;;;;;;;3.43;3.10;;;;;;;19.13;48.21;99172.19;5049754;28;20200;-25
2024/01/28 03:23:15;;;;;;;3.03;2.60;;;;;;;19.13;47.82;99169.63;5053529;28;20244;-25
2024/01/28 03:25:42;;;;;;;2.63;2.43;;;;;;;19.14;47.99;99171.41;5047756;28;20194;-25
2024/01/28 03:28:08;;;;;;;3.00;2.70;;;;;;;19.13;47.77;99174.72;5050577;28;20221;-25
2024/01/28 03:30:35;;;;;;;2.67;2.47;;;;;;;19.13;47.80;99182.38;5047568;28;20219;-26
2024/01/28 03:33:01;;;;;;;3.50;2.90;;;;;;;19.07;47.79;99169.22;5046669;28;20201;-25
2024/01/28 03:35:28;;;;;;;3.30;2.93;;;;;;;19.12;47.93;99172.06;5037655;28;20217;-26
2024/01/28 03:37:55;;;;;;;3.20;2.70;;;;;;;19.15;47.80;99179.91;5045222;28;20258;-25
2024/01/28 03:40:21;;;;;;;2.90;2.70;;;;;;;19.16;47.98;99184.25;5049298;28;20209;-26
2024/01/28 03:42:48;;;;;;;3.00;2.80;;;;;;;19.08;47.71;99163.38;5043501;28;20630;-25
2024/01/28 03:45:14;;;;;;;2.60;2.40;;;;;;;19.16;47.80;99176.63;5048219;28;20842;-25
2024/01/28 03:47:41;;;;;;;2.97;2.70;;;;;;;19.16;47.63;99177.47;5041868;28;20222;-25
2024/01/28 03:50:11;;;;;;;2.60;2.40;;;;;;;19.15;47.67;99172.28;5047293;28;20296;-25
2024/01/28 03:52:37;;;;;;;3.10;2.80;;;;;;;19.13;47.85;99176.41;5043628;28;20212;-25
2024/01/28 03:55:05;;;;;;;2.87;2.50;;;;;;;19.13;47.87;99169.63;5049901;28;20682;-28
2024/01/28 03:57:32;;;;;;;2.87;2.50;;;;;;;19.06;47.79;99159.84;5048949;28;20310;-25
2024/01/28 03:59:59;;;;;;;2.23;2.03;;;;;;;19.12;47.79;99178.06;5042170;28;20284;-25
2024/01/28 04:02:25;;;;;;;3.43;2.60;;;;;;;19.12;47.75;99175.53;5042961;28;20201;-25
2024/01/28 04:04:52;;;;;;;2.70;2.50;;;;;;;19.12;47.76;99174.63;5040846;28;20247;-26
2024/01/28 04:07:19;;;;;;;3.00;2.70;;;;;;;19.12;47.84;99172.06;5047038;28;20703;-25
2024/01/28 04:09:46;;;;;;;3.67;2.73;;;;;;;19.11;47.71;99172.88;5040532;28;20197;-25
2024/01/28 04:12:13;;;;;;;3.13;2.83;;;;;;;19.11;47.84;99178.88;5037212;28;20210;-25
2024/01/28 04:14:39;;;;;;;3.07;2.70;;;;;;;19.13;47.93;99174.72;5045333;28;20225;-25
2024/01/28 04:17:06;;;;;;;2.93;2.67;;;;;;;19.12;47.34;99177.19;5051975;28;20228;-31
2024/01/28 04:19:32;;;;;;;2.93;2.70;;;;;;;19.13;47.71;99173.88;5050701;28;20590;-25
2024/01/28 04:21:59;;;;;;;2.97;2.67;;;;;;;19.13;47.83;99172.19;5042076;28;20228;-25
2024/01/28 04:24:26;;;;;;;3.03;2.73;;;;;;;19.08;47.66;99160.81;5042192;28;20209;-26
2024/01/28 04:26:53;;;;;;;2.67;2.47;;;;;;;19.15;47.45;99173.16;5037875;28;20300;-25
2024/01/28 04:29:20;;;;;;;2.93;2.60;;;;;;;19.15;47.60;99170.63;5046287;28;20207;-25
2024/01/28 04:31:46;;;;;;;2.97;2.60;;;;;;;19.14;47.67;99166.31;5052040;28;20220;-25
2024/01/28 04:34:13;;;;;;;3.40;2.90;;;;;;;19.12;47.73;99162.78;5044121;28;20201;-25
2024/01/28 04:36:40;;;;;;;2.77;2.43;;;;;;;19.13;47.54;99166.22;5044556;28;20224;-25
2024/01/28 04:39:07;;;;;;;3.07;2.60;;;;;;;19.13;47.67;99168.78;5048339;28;20205;-25
2024/01/28 04:41:34;;;;;;;3.20;2.90;;;;;;;19.13;47.71;99176.41;5045564;28;20202;-26
2024/01/28 04:44:01;;;;;;;2.73;2.53;;;;;;;19.12;47.52;99180.63;5050212;28;20197;-25
2024/01/28 04:46:27;;;;;;;2.73;2.53;;;;;;;19.11;47.44;99180.53;5042014;28;20255;-25
2024/01/28 04:48:54;;;;;;;2.70;2.37;;;;;;;19.12;47.60;99182.28;5040331;28;20201;-26
2024/01/28 04:51:21;;;;;;;2.83;2.53;;;;;;;19.12;47.72;99182.28;5049456;28;20208;-27
2024/01/28 04:53:48;;;;;;;2.60;2.40;;;;;;;19.10;47.86;99178.75;5047262;28;20202;-25
2024/01/28 04:56:14;;;;;;;3.30;3.00;;;;;;;19.11;47.83;99180.53;5048913;28;20224;-27
2024/01/28 04:58:41;;;;;;;3.10;2.80;;;;;;;19.12;47.84;99182.28;5048336;28;20197;-26
2024/01/28 05:01:07;;;;;;;2.87;2.60;;;;;;;19.11;47.71;99186.50;5039629;28;20209;-25
2024/01/28 05:03:34;;;;;;;2.93;2.50;;;;;;;19.13;47.48;99192.56;5040906;28;20272;-25
2024/01/28 05:06:04;;;;;;;2.70;2.50;;;;;;;19.14;47.66;99191.81;5042297;28;20206;-25
2024/01/28 05:08:31;;;;;;;2.93;2.60;;;;;;;19.15;47.23;99196.09;5052270;28;20903;-26
2024/01/28 05:10:57;;;;;;;2.70;2.50;;;;;;;19.07;47.05;99184.53;5041025;28;20197;-25
2024/01/28 05:13:24;;;;;;;2.90;2.70;;;;;;;19.14;47.48;99199.44;5043874;28;20649;-25
2024/01/28 05:15:50;;;;;;;3.00;2.70;;;;;;;19.14;47.65;99198.56;5052150;28;20205;-25
2024/01/28 05:18:17;;;;;;;2.73;2.50;;;;;;;19.13;47.40;99187.47;5050997;28;20308;-26
2024/01/28 05:20:44;;;;;;;3.50;2.80;;;;;;;19.12;47.57;99193.38;5047749;28;20208;-25
2024/01/28 05:23:10;;;;;;;2.80;2.47;;;;;;;19.12;47.68;99198.47;5047634;28;20196;-25
2024/01/28 05:25:37;;;;;;;2.70;2.50;;;;;;;19.11;47.92;99195.81;5040674;28;20213;-25
2024/01/28 05:28:06;;;;;;;3.00;2.50;;;;;;;19.12;47.70;99198.47;5039759;28;20643;-26
2024/01/28 05:30:33;;;;;;;2.60;2.40;;;;;;;19.10;47.78;99197.47;5048626;28;20569;-25
2024/01/28 05:32:59;;;;;;;2.73;2.53;;;;;;;19.11;47.69;99196.69;5049113;28;20205;-25
2024/01/28 05:35:26;;;;;;;3.27;2.80;;;;;;;19.12;47.87;99200.13;5041587;28;20222;-26
2024/01/28 05:37:53;;;;;;;2.83;2.37;;;;;;;19.12;47.84;99206.09;5039427;28;20252;-25
2024/01/28 05:40:19;;;;;;;2.50;2.30;;;;;;;19.09;47.11;99195.72;5038952;28;20206;-25
2024/01/28 05:42:46;;;;;;;2.80;2.30;;;;;;;19.12;47.67;99195.00;5039779;28;20246;-25
2024/01/28 05:45:13;;;;;;;2.77;2.47;;;;;;;19.11;47.83;99199.25;5044481;28;20201;-28
2024/01/28 05:47:39;;;;;;;2.90;2.60;;;;;;;19.13;47.64;99195.13;5043455;28;20799;-25
2024/01/28 05:50:06;;;;;;;2.50;2.30;;;;;;;19.14;47.57;99194.34;5042434;28;20270;-25
2024/01/28 05:52:33;;;;;;;2.97;2.67;;;;;;;19.13;47.69;99187.47;5046955;28;20231;-25
2024/01/28 05:54:59;;;;;;;2.23;2.13;;;;;;;19.13;47.74;99201.91;5041331;28;20686;-25
2024/01/28 05:57:26;;;;;;;2.70;2.50;;;;;;;19.12;47.83;99197.56;5042024;28;20252;-25
2024/01/28 05:59:52;;;;;;;3.47;2.63;;;;;;;19.12;47.69;99198.47;5041356;28;20233;-25
2024/01/28 06:02:20;;;;;;;2.60;2.40;;;;;;;19.11;47.76;99206.00;5037417;28;20212;-25
2024/01/28 06:04:47;;;;;;;2.80;2.60;;;;;;;19.11;47.77;99204.34;5040137;28;20202;-25
2024/01/28 06:07:13;;;;;;;2.50;2.30;;;;;;;19.11;47.59;99206.91;5042234;28;20220;-26
2024/01/28 06:09:40;;;;;;;3.00;2.70;;;;;;;19.04;47.56;99191.09;5044236;28;20671;-25
2024/01/28 06:12:07;;;;;;;3.00;2.67;;;;;;;19.10;47.71;99205.09;5039933;28;20213;-25
2024/01/28 06:14:33;;;;;;;2.60;2.40;;;;;;;19.11;47.78;99204.34;5037612;28;20661;-28
2024/01/28 06:17:00;;;;;;;2.80;2.60;;;;;;;19.12;47.74;99208.66;5039830;28;20308;-25
2024/01/28 06:19:26;;;;;;;2.70;2.50;;;;;;;19.11;47.31;99206.00;5045334;28;20280;-25
2024/01/28 06:21:55;;;;;;;2.43;2.20;;;;;;;19.11;47.85;99206.91;5041139;28;20201;-25
2024/01/28 06:24:21;;;;;;;2.60;2.40;;;;;;;19.06;47.46;99199.72;5047960;28;20578;-25
2024/01/28 06:26:48;;;;;;;2.40;2.20;;;;;;;19.13;47.64;99207.84;5046953;28;20217;-27
2024/01/28 06:29:18;;;;;;;3.03;2.50;;;;;;;19.14;47.41;99206.19;5040154;28;20210;-33
2024/01/28 06:31:46;;;;;;;2.83;2.53;;;;;;;19.12;47.74;99205.22;5042236;28;20201;-25
2024/01/28 06:34:12;;;;;;;2.60;2.40;;;;;;;19.14;47.90;99206.19;5046351;28;20207;-26
2024/01/28 06:36:39;;;;;;;3.13;2.80;;;;;;;19.13;47.69;99209.53;5049724;28;20266;-25
2024/01/28 06:39:06;;;;;;;2.97;2.37;;;;;;;19.13;47.69;99215.50;5049736;28;20205;-25
2024/01/28 06:41:33;;;;;;;3.10;2.80;;;;;;;19.11;47.77;99212.00;5042370;28;20239;-26
2024/01/28 06:44:00;;;;;;;2.63;2.43;;;;;;;19.12;47.66;99215.41;5045788;28;20262;-27
2024/01/28 06:46:28;;;;;;;2.77;2.23;;;;;;;19.10;47.59;99212.75;5043492;28;20282;-25
2024/01/28 06:48:54;;;;;;;2.80;2.50;;;;;;;19.09;47.80;99208.44;5047377;28;20197;-25
2024/01/28 06:51:21;;;;;;;2.90;2.50;;;;;;;19.10;47.72;99209.34;5050636;28;20197;-26
2024/01/28 06:53:49;;;;;;;2.50;2.30;;;;;;;19.10;47.71;99212.75;5040341;28;20308;-25
2024/01/28 06:56:16;;;;;;;2.50;2.30;;;;;;;19.10;47.76;99217.00;5043232;28;20250;-25
2024/01/28 06:58:43;;;;;;;2.83;2.60;;;;;;;19.10;47.53;99217.84;5042161;28;20260;-25
2024/01/28 07:01:10;;;;;;;2.70;2.50;;;;;;;19.09;48.06;99216.09;5044728;28;20208;-26
2024/01/28 07:03:37;;;;;;;2.40;2.20;;;;;;;19.12;47.59;99212.84;5042443;28;20205;-28
2024/01/28 07:06:04;;;;;;;2.63;2.43;;;;;;;19.13;47.76;99215.50;5050904;28;20280;-25
2024/01/28 07:08:31;;;;;;;2.60;2.40;;;;;;;19.13;47.52;99215.50;5052800;28;20272;-27
2024/01/28 07:11:01;;;;;;;2.70;2.50;;;;;;;19.13;47.62;99207.84;5043196;28;20679;-26
2024/01/28 07:13:27;;;;;;;2.50;2.30;;;;;;;19.13;47.57;99219.75;5044530;28;20204;-25
2024/01/28 07:15:54;;;;;;;2.43;2.23;;;;;;;19.12;47.62;99211.19;5044857;28;20223;-26
2024/01/28 07:18:20;;;;;;;2.77;2.50;;;;;;;19.11;47.08;99214.53;5053525;28;20299;-25
2024/01/28 07:20:47;;;;;;;4.37;2.50;;;;;;;19.12;47.62;99212.84;5038942;28;20204;-25
2024/01/28 07:23:14;;;;;;;6.90;2.77;;;;;;;19.12;47.65;99208.66;5052693;28;20259;-25
2024/01/28 07:25:40;;;;;;;4.23;2.47;;;;;;;19.13;46.63;99217.19;5035672;28;20201;-26
2024/01/28 07:28:07;;;;;;;5.93;2.43;;;;;;;19.11;47.63;99213.66;5051230;28;20303;-26
2024/01/28 07:30:33;;;;;;;2.73;2.43;;;;;;;19.12;47.46;99208.66;5051141;28;20202;-25
2024/01/28 07:33:00;;;;;;;2.57;2.37;;;;;;;19.13;47.42;99212.09;5051898;28;20209;-25
2024/01/28 07:35:27;;;;;;;4.40;2.33;;;;;;;19.12;47.53;99210.31;5053917;28;20679;-27
2024/01/28 07:37:53;;;;;;;4.07;2.37;;;;;;;19.13;47.50;99212.09;5047250;28;20225;-25
2024/01/28 07:40:20;;;;;;;3.37;2.67;;;;;;;19.14;47.77;99216.41;5041661;28;20680;-25
2024/01/28 07:42:46;;;;;;;2.50;2.30;;;;;;;19.18;47.45;99215.81;5038989;28;20279;-26
2024/01/28 07:45:13;;;;;;;3.13;2.60;;;;;;;19.19;47.19;99215.03;5042509;28;20540;-31
2024/01/28 07:47:40;;;;;;;2.83;2.60;;;;;;;19.21;47.11;99209.25;5053468;28;20244;-25
2024/01/28 07:50:09;;;;;;;3.30;2.60;;;;;;;19.23;46.92;99209.34;5042024;28;20208;-25
2024/01/28 07:52:36;;;;;;;6.20;3.00;;;;;;;19.21;47.00;99211.78;5037873;28;20717;-25
2024/01/28 07:55:03;;;;;;;2.80;2.37;;;;;;;19.20;47.01;99215.13;5042026;28;20212;-25
2024/01/28 07:57:29;;;;;;;4.30;2.63;;;;;;;19.20;47.25;99214.25;5047673;28;20260;-25
2024/01/28 07:59:56;;;;;;;4.23;2.73;;;;;;;19.19;46.70;99212.50;5043510;28;20204;-25
2024/01/28 08:02:23;;;;;;;3.33;2.70;;;;;;;19.17;47.20;99207.28;5041520;28;20734;-25
2024/01/28 08:04:50;;;;;;;3.90;2.70;;;;;;;19.17;47.47;99208.94;5037956;28;20733;-25
2024/01/28 08:07:16;;;;;;;3.60;2.70;;;;;;;19.15;47.37;99201.22;5041502;28;20613;-25
2024/01/28 08:09:43;;;;;;;3.63;2.60;;;;;;;19.15;47.39;99207.97;5050519;28;20211;-25
2024/01/28 08:12:10;;;;;;;2.47;2.27;;;;;;;19.13;47.34;99201.91;5047367;28;20628;-25
2024/01/28 08:14:36;;;;;;;3.00;2.10;;;;;;;19.13;47.43;99199.34;5043531;28;20301;-25
2024/01/28 08:17:03;;;;;;;3.83;2.53;;;;;;;19.13;46.83;99195.13;5041896;28;20220;-25
2024/01/28 08:19:31;;;;;;;7.67;3.77;;;;;;;19.14;45.98;99196.91;5052429;28;20192;-25
2024/01/28 08:21:58;;;;;;;5.23;3.30;;;;;;;19.14;46.18;99202.00;5040714;28;20657;-26
2024/01/28 08:24:25;;;;;;;6.13;3.70;;;;;;;19.14;45.63;99201.09;5046951;28;20220;-27
2024/01/28 08:26:52;;;;;;;7.37;4.27;;;;;;;19.13;43.76;99195.13;5051983;28;20217;-25
2024/01/28 08:29:18;;;;;;;7.17;4.90;;;;;;;19.14;41.34;99196.00;5047677;28;20204;-25
2024/01/28 08:31:45;;;;;;;11.43;5.30;;;;;;;19.04;39.46;99181.78;5044584;28;20554;-25
2024/01/28 08:34:11;;;;;;;6.53;5.40;;;;;;;19.10;39.33;99194.06;5046179;28;20336;-27
2024/01/28 08:36:38;;;;;;;7.53;5.83;;;;;;;19.09;39.03;99194.81;5045538;28;20221;-25
2024/01/28 08:39:05;;;;;;;6.63;5.37;;;;;;;19.07;39.46;99196.41;5038838;28;20693;-25
2024/01/28 08:41:32;;;;;;;8.73;5.53;;;;;;;19.06;40.88;99197.16;5044732;28;20202;-26
2024/01/28 08:44:03;;;;;;;6.63;5.07;;;;;;;19.06;42.15;99203.16;5045360;28;20223;-25
2024/01/28 08:46:30;;;;;;;5.40;4.60;;;;;;;19.06;42.95;99195.50;5044577;28;20221;-25
2024/01/28 08:48:57;;;;;;;7.23;4.73;;;;;;;19.05;43.40;99196.31;5044376;28;20201;-26
2024/01/28 08:51:23;;;;;;;11.03;4.83;;;;;;;19.05;43.91;99191.22;5050570;28;20588;-25
2024/01/28 08:53:50;;;;;;;6.50;4.70;;;;;;;19.07;44.08;99191.31;5052173;28;20204;-29
2024/01/28 08:56:17;;;;;;;6.50;4.80;;;;;;;19.09;44.10;99194.81;5044340;28;20216;-25
2024/01/28 08:58:43;;;;;;;6.03;4.40;;;;;;;19.08;44.55;99185.41;5044690;28;20282;-25
2024/01/28 09:01:13;;;;;;;4.80;4.30;;;;;;;19.06;44.82;99190.41;5042021;28;20205;-25
2024/01/28 09:03:40;;;;;;;6.57;4.10;;;;;;;19.07;45.14;99192.16;5049382;28;20193;-25
2024/01/28 09:06:07;;;;;;;6.07;4.27;;;;;;;19.04;45.11;99188.56;5049882;28;20210;-25
2024/01/28 09:08:34;;;;;;;4.40;3.63;;;;;;;19.04;45.23;99186.88;5046868;28;20193;-25
2024/01/28 09:11:01;;;;;;;4.87;4.30;;;;;;;19.04;45.27;99186.88;5042896;28;20256;-25
2024/01/28 09:13:28;;;;;;;4.60;4.00;;;;;;;19.06;45.41;99189.53;5032863;28;20209;-26
2024/01/28 09:15:54;;;;;;;5.17;3.77;;;;;;;19.05;44.91;99187.75;5035394;28;20209;-26
2024/01/28 09:18:21;;;;;;;5.27;4.07;;;;;;;19.04;45.58;99175.81;5037083;28;20228;-27
2024/01/28 09:20:48;;;;;;;4.60;3.67;;;;;;;19.05;45.67;99185.22;5035718;28;20316;-30
2024/01/28 09:23:14;;;;;;;4.43;3.90;;;;;;;18.99;46.17;99177.19;5036450;28;20224;-33
2024/01/28 09:25:41;;;;;;;4.33;3.50;;;;;;;19.06;45.68;99184.41;5037774;28;20205;-25
2024/01/28 09:28:08;;;;;;;4.40;3.80;;;;;;;19.08;45.66;99180.31;5036093;28;20279;-27
2024/01/28 09:30:34;;;;;;;6.47;3.73;;;;;;;19.09;45.84;99184.63;5039851;28;20197;-26
2024/01/28 09:33:02;;;;;;;4.97;4.03;;;;;;;19.07;45.88;99188.75;5036293;28;20232;-27
2024/01/28 09:35:29;;;;;;;5.37;3.60;;;;;;;19.06;45.87;99185.31;5039277;28;20209;-25
2024/01/28 09:37:57;;;;;;;6.33;3.77;;;;;;;19.06;46.19;99179.31;5037224;28;20312;-28
2024/01/28 09:40:23;;;;;;;3.87;3.23;;;;;;;19.07;46.36;99184.53;5036070;28;20631;-26
2024/01/28 09:43:04;;;;;;;5.60;3.57;;;;;;;19.06;46.23;99185.31;5035579;28;20701;-26
2024/01/28 09:45:31;;;;;;;5.13;4.00;;;;;;;19.06;46.20;99192.97;5035130;28;20201;-25
2024/01/28 09:47:58;;;;;;;4.83;3.80;;;;;;;18.98;46.39;99178.81;5035141;28;20596;-31
2024/01/28 09:50:25;;;;;;;4.53;3.53;;;;;;;19.06;46.63;99197.16;5032838;28;20635;-27
2024/01/28 09:52:52;;;;;;;3.93;3.30;;;;;;;19.03;46.17;99190.22;5031285;28;20863;-25
2024/01/28 09:55:18;;;;;;;4.60;3.67;;;;;;;19.06;46.23;99184.41;5032122;28;20259;-25
2024/01/28 09:57:45;;;;;;;4.13;3.57;;;;;;;19.08;46.33;99183.75;5032496;28;20249;-27
2024/01/28 10:00:12;;;;;;;5.07;3.30;;;;;;;19.09;46.29;99185.50;5033090;28;20208;-25
2024/01/28 10:02:40;;;;;;;4.73;3.20;;;;;;;19.07;46.23;99181.97;5018470;28;20887;-25
2024/01/28 10:05:10;;;;;;;3.83;3.20;;;;;;;19.12;46.19;99182.28;5034418;28;20205;-26
2024/01/28 10:07:44;;;;;;;3.47;3.17;;;;;;;19.13;46.34;99179.81;5035211;28;20225;-25
2024/01/28 10:10:13;;;;;;;3.50;3.20;;;;;;;19.12;46.68;99178.06;5035986;28;20236;-25
2024/01/28 10:12:39;;;;;;;3.63;3.23;;;;;;;19.12;46.42;99183.16;5032342;28;20205;-29
2024/01/28 10:15:16;;;;;;;4.10;3.20;;;;;;;19.10;46.33;99184.72;5034140;28;20213;-26
2024/01/28 10:17:47;;;;;;;3.90;3.00;;;;;;;19.11;46.38;99180.53;5028634;28;20220;-27
2024/01/28 10:20:19;;;;;;;4.63;4.03;;;;;;;19.07;42.22;99165.81;5035377;28;20303;-26
2024/01/28 10:22:45;;;;;;;4.40;4.00;;;;;;;19.08;43.52;99171.03;5033501;28;20865;-29
2024/01/28 10:25:15;;;;;;;4.63;3.83;;;;;;;19.08;44.24;99168.47;5036381;28;20213;-28
2024/01/28 10:27:42;;;;;;;4.23;3.73;;;;;;;19.03;44.84;99166.38;5038073;28;20220;-25
2024/01/28 10:30:10;;;;;;;4.97;3.73;;;;;;;19.07;45.09;99169.22;5033116;28;20215;-26
2024/01/28 10:32:37;;;;;;;4.27;3.77;;;;;;;19.07;45.18;99179.44;5032136;28;20212;-30
2024/01/28 10:35:07;;;;;;;3.87;3.50;;;;;;;19.09;45.40;99180.41;5034580;28;20209;-25
2024/01/28 10:37:34;;;;;;;4.13;3.70;;;;;;;19.10;45.60;99182.19;5015160;28;20508;-32
2024/01/28 10:40:05;;;;;;;3.97;3.33;;;;;;;19.11;45.48;99176.31;5039240;28;20543;-28
2024/01/28 10:42:36;;;;;;;4.00;3.43;;;;;;;19.12;45.82;99172.06;5037356;28;20580;-25
2024/01/28 10:45:04;;;;;;;4.50;3.50;;;;;;;19.12;45.96;99166.97;5039072;28;20323;-27
2024/01/28 10:47:31;;;;;;;3.87;3.13;;;;;;;19.13;46.14;99167.09;5037533;28;20213;-30
2024/01/28 10:49:59;;;;;;;3.83;3.10;;;;;;;19.13;45.81;99161.97;5039739;28;20219;-25
2024/01/28 10:52:26;;;;;;;3.67;2.93;;;;;;;19.13;46.00;99150.94;5039229;28;20206;-26
2024/01/28 10:54:53;;;;;;;3.83;3.37;;;;;;;19.11;46.11;99138.09;5022478;28;20282;-25
2024/01/28 10:57:20;;;;;;;3.00;2.73;;;;;;;19.15;46.36;99139.16;5041470;28;20750;-25
2024/01/28 10:59:47;;;;;;;3.47;2.77;;;;;;;19.14;46.33;99137.38;5039668;28;20252;-26
2024/01/28 11:02:13;;;;;;;3.30;3.00;;;;;;;19.15;46.51;99128.94;5051373;28;20193;-27
2024/01/28 11:04:40;;;;;;;3.10;2.80;;;;;;;19.15;46.35;99124.75;5052777;28;20201;-27
2024/01/28 11:07:07;;;;;;;4.37;3.10;;;;;;;19.16;46.42;99125.63;5046821;28;20232;-25
2024/01/28 11:09:33;;;;;;;2.90;2.57;;;;;;;19.14;46.59;99111.91;5040163;28;20571;-25
2024/01/28 11:12:00;;;;;;;4.33;2.97;;;;;;;19.18;46.44;99117.28;5052760;28;20209;-25
2024/01/28 11:14:27;;;;;;;3.43;3.13;;;;;;;19.19;46.19;99116.50;5047425;28;20200;-25
2024/01/28 11:16:53;;;;;;;3.73;2.90;;;;;;;19.21;46.13;99114.03;5030152;28;20216;-25
2024/01/28 11:19:20;;;;;;;3.87;2.70;;;;;;;19.22;46.15;99105.63;5052756;28;20263;-25
2024/01/28 11:21:57;;;;;;;3.70;2.73;;;;;;;19.23;46.23;99110.84;5051206;28;20679;-25
2024/01/28 11:24:23;;;;;;;4.03;2.80;;;;;;;19.21;46.27;99103.84;5049010;28;20656;-25
2024/01/28 11:26:50;;;;;;;3.23;2.73;;;;;;;19.15;46.33;99093.28;5049130;28;20668;-25
2024/01/28 11:29:17;;;;;;;3.87;3.00;;;;;;;19.20;46.34;99102.09;5048524;28;20319;-27
2024/01/28 11:31:44;;;;;;;5.07;3.10;;;;;;;19.16;46.29;99101.00;5048985;28;20197;-25
2024/01/28 11:34:21;;;;;;;4.47;3.10;;;;;;;19.18;46.42;99099.47;5039034;28;20242;-25